Benbecula Airport

About
Name: Benbecula Airport
Identifier:  BEB/EGPL
Serves:  Benbecula
Operator:  Highlands and Islands Airports Limited
Public/Private:  Private
Local Time:  23. Aug 10:19 BST
Description: Benbecula Airport is located on the island of Benbecula in the Outer Hebrides, off the West Coast of Scotland. It is a small rural airport owned and maintained by Highlands and Islands Airports Limited.
Source: Wikipedia
Location
Runways
Identifier Length (m/ft) Surface
06/24 1,836/6,023 Asphalt
17/35 1,220/4,003 Asphalt
Flights per Day
4 flights
Distance: 197km (122mi)
Punctuality
83% (0 flights per day delayed)
Delay Average: 12 minutes
Current Weather
 15 C (Humidity: 93%)
  21kt (38km/h / 24mph) from 210°
  Overcast at 500 feet (152 meter)
  3km (2 mi.)
 Mist
 METAR EGPL 230850Z 21021KT 3500 -RADZ BR OVC005 15/14 Q1013

Current Flights

Departures
Number Departure To Airline
Arrivals
Number Arrival From Airline
 LM407 08:15  Glasgow  Loganair
 LM409 17:00  Glasgow  Loganair

Current Delays

Departures
N/A
Arrivals
N/A

Destinations

Top Destinations
Airport Flights
per week
Seats
per week
  Glasgow (GLA) 22 680 3 97
  Stornoway (SYY) 16 404 2 57

Airlines & Planes

Top Airlines
Airline Flights
per Day
Seats
per Day
  Loganair 5 145
  bmi Regional 0 9
Top Plane Types
Model Flights Seats
Saab 340 5.0/day 145/day 145.13333333333333
Embraer ERJ145 0.4/day 9/day 9.8